sensor_id;sensor_type;location;lat;lon;timestamp;temperature;humidity
9640;DHT22;51745;50.872;4.732;2023-04-24T00:01:04;8.90;99.90
9640;DHT22;51745;50.872;4.732;2023-04-24T00:03:55;8.80;99.90
9640;DHT22;51745;50.872;4.732;2023-04-24T00:06:46;8.80;99.90
9640;DHT22;51745;50.872;4.732;2023-04-24T00:09:35;8.90;99.90
9640;DHT22;51745;50.872;4.732;2023-04-24T00:12:23;9.60;99.90
9640;DHT22;51745;50.872;4.732;2023-04-24T00:15:14;8.80;99.90
9640;DHT22;51745;50.872;4.732;2023-04-24T00:18:01;8.70;99.90
9640;DHT22;51745;50.872;4.732;2023-04-24T00:20:51;9.00;99.90
9640;DHT22;51745;50.872;4.732;2023-04-24T00:23:40;8.80;99.90
9640;DHT22;51745;50.872;4.732;2023-04-24T00:26:30;8.90;99.90
9640;DHT22;51745;50.872;4.732;2023-04-24T00:29:18;8.90;99.90
9640;DHT22;51745;50.872;4.732;2023-04-24T00:32:09;8.90;99.90
9640;DHT22;51745;50.872;4.732;2023-04-24T00:34:57;8.80;99.90
9640;DHT22;51745;50.872;4.732;2023-04-24T00:37:48;8.80;99.90
9640;DHT22;51745;50.872;4.732;2023-04-24T00:40:39;8.90;99.90
9640;DHT22;51745;50.872;4.732;2023-04-24T00:43:27;8.40;99.90
9640;DHT22;51745;50.872;4.732;2023-04-24T00:46:16;8.90;99.90
9640;DHT22;51745;50.872;4.732;2023-04-24T00:49:04;8.90;99.90
9640;DHT22;51745;50.872;4.732;2023-04-24T00:51:52;8.60;99.90
9640;DHT22;51745;50.872;4.732;2023-04-24T00:54:41;9.80;99.90
9640;DHT22;51745;50.872;4.732;2023-04-24T00:57:31;8.60;99.90
9640;DHT22;51745;50.872;4.732;2023-04-24T01:00:19;8.60;99.90
9640;DHT22;51745;50.872;4.732;2023-04-24T01:03:07;8.50;99.90
9640;DHT22;51745;50.872;4.732;2023-04-24T01:05:57;8.50;99.90
9640;DHT22;51745;50.872;4.732;2023-04-24T01:08:51;8.50;99.90
9640;DHT22;51745;50.872;4.732;2023-04-24T01:11:40;8.50;99.90
9640;DHT22;51745;50.872;4.732;2023-04-24T01:14:30;10.40;99.90
9640;DHT22;51745;50.872;4.732;2023-04-24T01:17:18;8.60;99.90
9640;DHT22;51745;50.872;4.732;2023-04-24T01:20:06;9.90;99.90
9640;DHT22;51745;50.872;4.732;2023-04-24T01:22:56;9.00;99.90
9640;DHT22;51745;50.872;4.732;2023-04-24T01:25:44;8.60;99.90
9640;DHT22;51745;50.872;4.732;2023-04-24T01:28:32;8.60;99.90
9640;DHT22;51745;50.872;4.732;2023-04-24T01:31:23;8.60;99.90
9640;DHT22;51745;50.872;4.732;2023-04-24T01:34:11;8.60;99.90
9640;DHT22;51745;50.872;4.732;2023-04-24T01:37:00;8.60;99.90
9640;DHT22;51745;50.872;4.732;2023-04-24T01:39:50;8.60;99.90
9640;DHT22;51745;50.872;4.732;2023-04-24T01:42:38;8.60;99.90
9640;DHT22;51745;50.872;4.732;2023-04-24T01:45:28;8.60;99.90
9640;DHT22;51745;50.872;4.732;2023-04-24T01:48:15;8.40;99.90
9640;DHT22;51745;50.872;4.732;2023-04-24T01:51:03;8.50;99.90
9640;DHT22;51745;50.872;4.732;2023-04-24T01:53:51;8.40;99.90
9640;DHT22;51745;50.872;4.732;2023-04-24T01:56:41;8.30;99.90
9640;DHT22;51745;50.872;4.732;2023-04-24T01:59:28;8.20;99.90
9640;DHT22;51745;50.872;4.732;2023-04-24T02:02:17;8.10;99.90
9640;DHT22;51745;50.872;4.732;2023-04-24T02:05:08;8.20;99.90
9640;DHT22;51745;50.872;4.732;2023-04-24T02:07:57;8.00;99.90
9640;DHT22;51745;50.872;4.732;2023-04-24T02:10:46;7.90;99.90
9640;DHT22;51745;50.872;4.732;2023-04-24T02:13:35;7.90;99.90
9640;DHT22;51745;50.872;4.732;2023-04-24T02:16:22;8.10;99.90
9640;DHT22;51745;50.872;4.732;2023-04-24T02:19:11;7.90;99.90
9640;DHT22;51745;50.872;4.732;2023-04-24T02:21:58;8.10;99.90
9640;DHT22;51745;50.872;4.732;2023-04-24T02:24:46;8.10;99.90
9640;DHT22;51745;50.872;4.732;2023-04-24T02:27:34;7.90;99.90
9640;DHT22;51745;50.872;4.732;2023-04-24T02:30:25;7.90;99.90
9640;DHT22;51745;50.872;4.732;2023-04-24T02:33:13;7.80;99.90
9640;DHT22;51745;50.872;4.732;2023-04-24T02:36:00;8.00;99.90
9640;DHT22;51745;50.872;4.732;2023-04-24T02:38:49;8.00;99.90
9640;DHT22;51745;50.872;4.732;2023-04-24T02:41:37;7.90;99.90
9640;DHT22;51745;50.872;4.732;2023-04-24T02:44:25;8.00;99.90
9640;DHT22;51745;50.872;4.732;2023-04-24T02:47:14;7.90;99.90
9640;DHT22;51745;50.872;4.732;2023-04-24T02:50:02;8.00;99.90
9640;DHT22;51745;50.872;4.732;2023-04-24T02:52:50;8.20;99.90
9640;DHT22;51745;50.872;4.732;2023-04-24T02:55:37;7.90;99.90
9640;DHT22;51745;50.872;4.732;2023-04-24T02:58:25;7.70;99.90
9640;DHT22;51745;50.872;4.732;2023-04-24T03:01:12;7.90;99.90
9640;DHT22;51745;50.872;4.732;2023-04-24T03:04:01;7.90;99.90
9640;DHT22;51745;50.872;4.732;2023-04-24T03:06:50;7.90;99.90
9640;DHT22;51745;50.872;4.732;2023-04-24T03:09:42;7.90;99.90
9640;DHT22;51745;50.872;4.732;2023-04-24T03:12:30;7.70;99.90
9640;DHT22;51745;50.872;4.732;2023-04-24T03:15:17;7.80;99.90
9640;DHT22;51745;50.872;4.732;2023-04-24T03:18:05;7.80;99.90
9640;DHT22;51745;50.872;4.732;2023-04-24T03:20:54;7.70;99.90
9640;DHT22;51745;50.872;4.732;2023-04-24T03:23:42;7.70;99.90
9640;DHT22;51745;50.872;4.732;2023-04-24T03:26:30;7.60;99.90
9640;DHT22;51745;50.872;4.732;2023-04-24T03:29:31;7.70;99.90
9640;DHT22;51745;50.872;4.732;2023-04-24T03:32:20;7.30;99.90
9640;DHT22;51745;50.872;4.732;2023-04-24T03:35:07;7.80;99.90
9640;DHT22;51745;50.872;4.732;2023-04-24T03:37:57;7.80;99.90
9640;DHT22;51745;50.872;4.732;2023-04-24T03:41:04;10.90;99.90
9640;DHT22;51745;50.872;4.732;2023-04-24T03:43:59;7.80;99.90
9640;DHT22;51745;50.872;4.732;2023-04-24T03:46:49;7.80;99.90
9640;DHT22;51745;50.872;4.732;2023-04-24T03:49:39;7.80;99.90
9640;DHT22;51745;50.872;4.732;2023-04-24T03:52:30;7.50;99.90
9640;DHT22;51745;50.872;4.732;2023-04-24T03:55:19;7.60;99.90
9640;DHT22;51745;50.872;4.732;2023-04-24T03:58:07;7.60;99.90
9640;DHT22;51745;50.872;4.732;2023-04-24T04:00:55;7.70;99.90
9640;DHT22;51745;50.872;4.732;2023-04-24T04:04:04;7.60;99.90
9640;DHT22;51745;50.872;4.732;2023-04-24T04:06:55;7.60;99.90
9640;DHT22;51745;50.872;4.732;2023-04-24T04:09:43;7.70;99.90
9640;DHT22;51745;50.872;4.732;2023-04-24T04:12:32;7.60;99.90
9640;DHT22;51745;50.872;4.732;2023-04-24T04:15:19;7.50;99.90
9640;DHT22;51745;50.872;4.732;2023-04-24T04:18:08;7.60;99.90
9640;DHT22;51745;50.872;4.732;2023-04-24T04:20:56;7.60;99.90
9640;DHT22;51745;50.872;4.732;2023-04-24T04:23:48;7.60;99.90
9640;DHT22;51745;50.872;4.732;2023-04-24T04:26:46;7.70;99.90
9640;DHT22;51745;50.872;4.732;2023-04-24T04:29:44;7.70;99.90
9640;DHT22;51745;50.872;4.732;2023-04-24T04:32:33;7.70;99.90
9640;DHT22;51745;50.872;4.732;2023-04-24T04:35:22;7.60;99.90
9640;DHT22;51745;50.872;4.732;2023-04-24T04:38:11;7.60;99.90
9640;DHT22;51745;50.872;4.732;2023-04-24T04:41:16;7.60;99.90
9640;DHT22;51745;50.872;4.732;2023-04-24T04:44:04;7.80;99.90
9640;DHT22;51745;50.872;4.732;2023-04-24T04:46:54;7.70;99.90
9640;DHT22;51745;50.872;4.732;2023-04-24T04:49:48;7.70;99.90
9640;DHT22;51745;50.872;4.732;2023-04-24T04:52:41;7.80;99.90
9640;DHT22;51745;50.872;4.732;2023-04-24T04:55:42;7.80;99.90
9640;DHT22;51745;50.872;4.732;2023-04-24T04:58:33;7.70;99.90
9640;DHT22;51745;50.872;4.732;2023-04-24T05:01:21;7.30;99.90
9640;DHT22;51745;50.872;4.732;2023-04-24T05:04:12;7.50;99.90
9640;DHT22;51745;50.872;4.732;2023-04-24T05:07:03;7.70;99.90
9640;DHT22;51745;50.872;4.732;2023-04-24T05:09:53;8.40;99.90
9640;DHT22;51745;50.872;4.732;2023-04-24T05:12:42;7.60;99.90
9640;DHT22;51745;50.872;4.732;2023-04-24T05:15:31;5.50;99.90
9640;DHT22;51745;50.872;4.732;2023-04-24T05:18:19;7.60;99.90
9640;DHT22;51745;50.872;4.732;2023-04-24T05:21:09;7.60;99.90
9640;DHT22;51745;50.872;4.732;2023-04-24T05:23:59;8.20;99.90
9640;DHT22;51745;50.872;4.732;2023-04-24T05:27:25;7.60;99.90
9640;DHT22;51745;50.872;4.732;2023-04-24T05:30:12;7.60;99.90
9640;DHT22;51745;50.872;4.732;2023-04-24T05:33:00;7.60;99.90
9640;DHT22;51745;50.872;4.732;2023-04-24T05:35:49;7.60;99.90
9640;DHT22;51745;50.872;4.732;2023-04-24T05:38:38;7.50;99.90
9640;DHT22;51745;50.872;4.732;2023-04-24T05:41:26;7.50;99.90
9640;DHT22;51745;50.872;4.732;2023-04-24T05:44:13;7.60;99.90
9640;DHT22;51745;50.872;4.732;2023-04-24T05:47:01;7.10;99.90
9640;DHT22;51745;50.872;4.732;2023-04-24T05:49:49;6.40;99.90
9640;DHT22;51745;50.872;4.732;2023-04-24T05:52:37;7.90;99.90
9640;DHT22;51745;50.872;4.732;2023-04-24T05:55:38;7.40;99.90
9640;DHT22;51745;50.872;4.732;2023-04-24T05:58:25;7.50;99.90
9640;DHT22;51745;50.872;4.732;2023-04-24T06:01:13;7.40;99.90
9640;DHT22;51745;50.872;4.732;2023-04-24T06:04:05;7.30;99.90
9640;DHT22;51745;50.872;4.732;2023-04-24T06:06:53;7.30;99.90
9640;DHT22;51745;50.872;4.732;2023-04-24T06:12:55;7.40;99.90
9640;DHT22;51745;50.872;4.732;2023-04-24T06:15:52;7.30;99.90
9640;DHT22;51745;50.872;4.732;2023-04-24T06:18:48;7.40;99.90
9640;DHT22;51745;50.872;4.732;2023-04-24T06:21:37;8.10;99.90
9640;DHT22;51745;50.872;4.732;2023-04-24T06:24:27;7.40;99.90
9640;DHT22;51745;50.872;4.732;2023-04-24T06:27:14;7.30;99.90
9640;DHT22;51745;50.872;4.732;2023-04-24T06:30:04;6.80;99.90
9640;DHT22;51745;50.872;4.732;2023-04-24T06:32:52;7.70;99.90
9640;DHT22;51745;50.872;4.732;2023-04-24T06:35:45;7.40;99.90
9640;DHT22;51745;50.872;4.732;2023-04-24T06:38:33;7.50;99.90
9640;DHT22;51745;50.872;4.732;2023-04-24T06:41:21;7.40;99.90
9640;DHT22;51745;50.872;4.732;2023-04-24T06:44:09;7.40;99.90
9640;DHT22;51745;50.872;4.732;2023-04-24T06:46:58;7.50;99.90
9640;DHT22;51745;50.872;4.732;2023-04-24T06:49:47;7.40;99.90
9640;DHT22;51745;50.872;4.732;2023-04-24T06:52:37;7.50;99.90
9640;DHT22;51745;50.872;4.732;2023-04-24T06:55:25;7.80;99.90
9640;DHT22;51745;50.872;4.732;2023-04-24T06:58:14;7.70;99.90
9640;DHT22;51745;50.872;4.732;2023-04-24T07:01:03;5.90;99.90
9640;DHT22;51745;50.872;4.732;2023-04-24T07:03:52;7.50;99.90
9640;DHT22;51745;50.872;4.732;2023-04-24T07:06:41;7.70;99.90
9640;DHT22;51745;50.872;4.732;2023-04-24T07:09:31;7.30;99.90
9640;DHT22;51745;50.872;4.732;2023-04-24T07:12:30;10.60;99.90
9640;DHT22;51745;50.872;4.732;2023-04-24T07:15:19;7.80;99.90
9640;DHT22;51745;50.872;4.732;2023-04-24T07:18:10;7.70;99.90
9640;DHT22;51745;50.872;4.732;2023-04-24T07:20:59;7.80;99.90
9640;DHT22;51745;50.872;4.732;2023-04-24T07:23:47;6.20;99.90
9640;DHT22;51745;50.872;4.732;2023-04-24T07:26:37;7.90;99.90
9640;DHT22;51745;50.872;4.732;2023-04-24T07:29:26;8.50;99.90
9640;DHT22;51745;50.872;4.732;2023-04-24T07:32:14;8.00;99.90
9640;DHT22;51745;50.872;4.732;2023-04-24T07:35:02;8.00;99.90
9640;DHT22;51745;50.872;4.732;2023-04-24T07:37:53;7.90;99.90
9640;DHT22;51745;50.872;4.732;2023-04-24T07:40:40;7.90;99.90
9640;DHT22;51745;50.872;4.732;2023-04-24T07:43:45;7.20;99.90
9640;DHT22;51745;50.872;4.732;2023-04-24T07:46:33;7.80;99.90
9640;DHT22;51745;50.872;4.732;2023-04-24T07:49:21;7.80;99.90
9640;DHT22;51745;50.872;4.732;2023-04-24T07:52:08;7.80;99.90
9640;DHT22;51745;50.872;4.732;2023-04-24T07:54:58;7.90;99.90
9640;DHT22;51745;50.872;4.732;2023-04-24T07:57:46;6.00;99.90
9640;DHT22;51745;50.872;4.732;2023-04-24T08:00:34;8.00;99.90
9640;DHT22;51745;50.872;4.732;2023-04-24T08:03:25;8.20;99.90
9640;DHT22;51745;50.872;4.732;2023-04-24T08:06:13;7.60;99.90
9640;DHT22;51745;50.872;4.732;2023-04-24T08:09:04;8.00;99.90
9640;DHT22;51745;50.872;4.732;2023-04-24T08:11:53;8.00;99.90
9640;DHT22;51745;50.872;4.732;2023-04-24T08:14:41;8.20;99.90
9640;DHT22;51745;50.872;4.732;2023-04-24T08:17:29;8.40;99.90
9640;DHT22;51745;50.872;4.732;2023-04-24T08:20:17;8.60;99.90
9640;DHT22;51745;50.872;4.732;2023-04-24T08:23:05;8.70;99.90
9640;DHT22;51745;50.872;4.732;2023-04-24T08:25:55;8.80;99.90
9640;DHT22;51745;50.872;4.732;2023-04-24T08:28:45;9.00;99.90
9640;DHT22;51745;50.872;4.732;2023-04-24T08:31:34;8.80;99.90
9640;DHT22;51745;50.872;4.732;2023-04-24T08:34:24;8.70;99.90
9640;DHT22;51745;50.872;4.732;2023-04-24T08:37:11;10.80;99.90
9640;DHT22;51745;50.872;4.732;2023-04-24T08:39:59;8.70;99.90
9640;DHT22;51745;50.872;4.732;2023-04-24T08:42:47;7.60;99.90
9640;DHT22;51745;50.872;4.732;2023-04-24T08:45:39;8.50;99.90
9640;DHT22;51745;50.872;4.732;2023-04-24T08:48:28;8.50;99.90
9640;DHT22;51745;50.872;4.732;2023-04-24T08:51:17;8.60;99.90
9640;DHT22;51745;50.872;4.732;2023-04-24T08:54:06;9.00;99.90
9640;DHT22;51745;50.872;4.732;2023-04-24T08:56:56;8.70;99.90
9640;DHT22;51745;50.872;4.732;2023-04-24T08:59:49;8.90;99.90
9640;DHT22;51745;50.872;4.732;2023-04-24T09:02:39;11.00;99.90
9640;DHT22;51745;50.872;4.732;2023-04-24T09:05:30;9.40;99.90
9640;DHT22;51745;50.872;4.732;2023-04-24T09:08:22;9.40;99.90
9640;DHT22;51745;50.872;4.732;2023-04-24T09:11:13;9.30;99.90
9640;DHT22;51745;50.872;4.732;2023-04-24T09:14:01;9.20;99.90
9640;DHT22;51745;50.872;4.732;2023-04-24T09:16:49;9.10;99.90
9640;DHT22;51745;50.872;4.732;2023-04-24T09:19:38;9.20;99.90
9640;DHT22;51745;50.872;4.732;2023-04-24T09:22:27;9.20;99.90
9640;DHT22;51745;50.872;4.732;2023-04-24T09:25:16;9.10;99.90
9640;DHT22;51745;50.872;4.732;2023-04-24T09:28:10;9.40;99.90
9640;DHT22;51745;50.872;4.732;2023-04-24T09:31:07;9.60;99.90
9640;DHT22;51745;50.872;4.732;2023-04-24T09:33:55;9.80;99.90
9640;DHT22;51745;50.872;4.732;2023-04-24T09:36:48;9.00;99.90
9640;DHT22;51745;50.872;4.732;2023-04-24T09:39:36;9.90;99.90
9640;DHT22;51745;50.872;4.732;2023-04-24T09:42:24;10.10;99.90
9640;DHT22;51745;50.872;4.732;2023-04-24T09:45:13;10.40;99.90
9640;DHT22;51745;50.872;4.732;2023-04-24T09:48:01;10.00;99.90
9640;DHT22;51745;50.872;4.732;2023-04-24T09:50:49;10.40;99.90
9640;DHT22;51745;50.872;4.732;2023-04-24T09:53:46;9.80;99.90
9640;DHT22;51745;50.872;4.732;2023-04-24T09:56:41;7.50;99.90
9640;DHT22;51745;50.872;4.732;2023-04-24T09:59:32;9.60;99.90
9640;DHT22;51745;50.872;4.732;2023-04-24T10:02:22;9.80;99.90
9640;DHT22;51745;50.872;4.732;2023-04-24T10:05:10;10.00;99.90
9640;DHT22;51745;50.872;4.732;2023-04-24T10:08:02;10.30;99.90
9640;DHT22;51745;50.872;4.732;2023-04-24T10:10:54;10.70;99.90
9640;DHT22;51745;50.872;4.732;2023-04-24T10:13:43;10.80;99.90
9640;DHT22;51745;50.872;4.732;2023-04-24T10:16:31;12.70;99.90
9640;DHT22;51745;50.872;4.732;2023-04-24T10:19:19;10.80;99.90
9640;DHT22;51745;50.872;4.732;2023-04-24T10:22:10;10.70;99.90
9640;DHT22;51745;50.872;4.732;2023-04-24T10:24:58;10.60;99.90
9640;DHT22;51745;50.872;4.732;2023-04-24T10:27:51;10.60;99.90
9640;DHT22;51745;50.872;4.732;2023-04-24T10:30:48;10.70;99.90
9640;DHT22;51745;50.872;4.732;2023-04-24T10:33:36;10.90;99.90
9640;DHT22;51745;50.872;4.732;2023-04-24T10:36:31;11.10;99.90
9640;DHT22;51745;50.872;4.732;2023-04-24T10:39:21;11.10;99.90
9640;DHT22;51745;50.872;4.732;2023-04-24T10:42:17;11.30;99.90
9640;DHT22;51745;50.872;4.732;2023-04-24T10:45:07;11.50;99.90
9640;DHT22;51745;50.872;4.732;2023-04-24T10:48:05;12.10;99.90
9640;DHT22;51745;50.872;4.732;2023-04-24T10:51:03;12.10;99.90
9640;DHT22;51745;50.872;4.732;2023-04-24T10:53:55;11.80;99.90
9640;DHT22;51745;50.872;4.732;2023-04-24T10:56:44;11.90;99.90
9640;DHT22;51745;50.872;4.732;2023-04-24T10:59:36;12.60;99.90
9640;DHT22;51745;50.872;4.732;2023-04-24T11:02:35;11.60;99.90
9640;DHT22;51745;50.872;4.732;2023-04-24T11:08:28;10.60;99.90
9640;DHT22;51745;50.872;4.732;2023-04-24T11:11:17;10.50;99.90
9640;DHT22;51745;50.872;4.732;2023-04-24T11:14:14;10.60;99.90
9640;DHT22;51745;50.872;4.732;2023-04-24T11:17:02;11.80;99.90
9640;DHT22;51745;50.872;4.732;2023-04-24T11:19:52;12.60;99.90
9640;DHT22;51745;50.872;4.732;2023-04-24T11:23:07;11.00;99.90
9640;DHT22;51745;50.872;4.732;2023-04-24T11:26:09;13.30;99.90
9640;DHT22;51745;50.872;4.732;2023-04-24T11:29:05;11.20;99.90
9640;DHT22;51745;50.872;4.732;2023-04-24T11:31:58;11.40;99.90
9640;DHT22;51745;50.872;4.732;2023-04-24T11:35:08;11.60;99.90
9640;DHT22;51745;50.872;4.732;2023-04-24T11:37:55;11.10;99.90
9640;DHT22;51745;50.872;4.732;2023-04-24T11:40:47;13.30;99.90
9640;DHT22;51745;50.872;4.732;2023-04-24T11:43:36;10.70;99.90
9640;DHT22;51745;50.872;4.732;2023-04-24T11:46:28;11.00;99.90
9640;DHT22;51745;50.872;4.732;2023-04-24T11:49:16;11.30;99.90
9640;DHT22;51745;50.872;4.732;2023-04-24T11:52:07;11.40;99.90
9640;DHT22;51745;50.872;4.732;2023-04-24T11:54:55;11.30;99.90
9640;DHT22;51745;50.872;4.732;2023-04-24T11:57:44;11.30;99.90
9640;DHT22;51745;50.872;4.732;2023-04-24T12:00:32;11.50;99.90
9640;DHT22;51745;50.872;4.732;2023-04-24T12:03:21;11.60;99.90
9640;DHT22;51745;50.872;4.732;2023-04-24T12:06:10;11.70;99.90
9640;DHT22;51745;50.872;4.732;2023-04-24T12:09:03;11.70;99.90
9640;DHT22;51745;50.872;4.732;2023-04-24T12:12:03;12.30;99.90
9640;DHT22;51745;50.872;4.732;2023-04-24T12:14:57;13.20;99.90
9640;DHT22;51745;50.872;4.732;2023-04-24T12:17:47;12.90;99.90
9640;DHT22;51745;50.872;4.732;2023-04-24T12:20:36;12.50;99.90
9640;DHT22;51745;50.872;4.732;2023-04-24T12:23:34;11.90;99.90
9640;DHT22;51745;50.872;4.732;2023-04-24T12:26:24;12.10;99.90
9640;DHT22;51745;50.872;4.732;2023-04-24T12:29:19;12.60;99.90
9640;DHT22;51745;50.872;4.732;2023-04-24T12:32:17;12.60;99.90
9640;DHT22;51745;50.872;4.732;2023-04-24T12:35:05;12.40;99.90
9640;DHT22;51745;50.872;4.732;2023-04-24T12:37:53;13.30;99.90
9640;DHT22;51745;50.872;4.732;2023-04-24T12:40:43;12.80;99.90
9640;DHT22;51745;50.872;4.732;2023-04-24T12:43:34;12.90;99.90
9640;DHT22;51745;50.872;4.732;2023-04-24T12:46:36;13.00;99.90
9640;DHT22;51745;50.872;4.732;2023-04-24T12:49:29;14.00;99.90
9640;DHT22;51745;50.872;4.732;2023-04-24T12:52:17;14.80;99.90
9640;DHT22;51745;50.872;4.732;2023-04-24T12:55:10;13.70;99.90
9640;DHT22;51745;50.872;4.732;2023-04-24T12:58:07;13.20;99.90
9640;DHT22;51745;50.872;4.732;2023-04-24T13:01:03;13.50;99.90
9640;DHT22;51745;50.872;4.732;2023-04-24T13:03:52;14.10;99.90
9640;DHT22;51745;50.872;4.732;2023-04-24T13:06:40;14.70;99.90
9640;DHT22;51745;50.872;4.732;2023-04-24T13:09:33;15.00;99.90
9640;DHT22;51745;50.872;4.732;2023-04-24T13:12:21;16.10;99.90
9640;DHT22;51745;50.872;4.732;2023-04-24T13:15:10;14.60;99.90
9640;DHT22;51745;50.872;4.732;2023-04-24T13:18:00;15.30;99.90
9640;DHT22;51745;50.872;4.732;2023-04-24T13:20:51;15.00;99.90
9640;DHT22;51745;50.872;4.732;2023-04-24T13:23:41;14.50;99.90
9640;DHT22;51745;50.872;4.732;2023-04-24T13:26:32;13.60;99.90
9640;DHT22;51745;50.872;4.732;2023-04-24T13:29:21;12.90;99.90
9640;DHT22;51745;50.872;4.732;2023-04-24T13:32:09;12.50;99.90
9640;DHT22;51745;50.872;4.732;2023-04-24T13:34:59;12.20;99.90
9640;DHT22;51745;50.872;4.732;2023-04-24T13:37:47;12.80;99.90
9640;DHT22;51745;50.872;4.732;2023-04-24T13:40:38;13.00;99.90
9640;DHT22;51745;50.872;4.732;2023-04-24T13:43:25;13.10;99.90
9640;DHT22;51745;50.872;4.732;2023-04-24T13:46:14;12.90;99.90
9640;DHT22;51745;50.872;4.732;2023-04-24T13:49:03;12.90;99.90
9640;DHT22;51745;50.872;4.732;2023-04-24T13:51:52;13.40;99.90
9640;DHT22;51745;50.872;4.732;2023-04-24T13:54:40;14.80;99.90
9640;DHT22;51745;50.872;4.732;2023-04-24T13:57:31;14.50;99.90
9640;DHT22;51745;50.872;4.732;2023-04-24T14:00:22;15.10;99.90
9640;DHT22;51745;50.872;4.732;2023-04-24T14:03:09;15.70;99.90
9640;DHT22;51745;50.872;4.732;2023-04-24T14:05:58;15.00;99.90
9640;DHT22;51745;50.872;4.732;2023-04-24T14:08:47;14.40;99.90
9640;DHT22;51745;50.872;4.732;2023-04-24T14:11:36;13.70;99.90
9640;DHT22;51745;50.872;4.732;2023-04-24T14:14:24;13.10;99.90
9640;DHT22;51745;50.872;4.732;2023-04-24T14:17:13;13.20;99.90
9640;DHT22;51745;50.872;4.732;2023-04-24T14:20:01;14.00;99.90
9640;DHT22;51745;50.872;4.732;2023-04-24T14:22:55;12.50;99.90
9640;DHT22;51745;50.872;4.732;2023-04-24T14:25:47;10.40;99.90
9640;DHT22;51745;50.872;4.732;2023-04-24T14:28:37;12.40;99.90
9640;DHT22;51745;50.872;4.732;2023-04-24T14:31:25;12.30;99.90
9640;DHT22;51745;50.872;4.732;2023-04-24T14:34:13;12.50;99.90
9640;DHT22;51745;50.872;4.732;2023-04-24T14:37:01;12.50;99.90
9640;DHT22;51745;50.872;4.732;2023-04-24T14:39:49;12.40;99.90
9640;DHT22;51745;50.872;4.732;2023-04-24T14:42:58;12.80;99.90
9640;DHT22;51745;50.872;4.732;2023-04-24T14:45:46;12.60;99.90
9640;DHT22;51745;50.872;4.732;2023-04-24T14:48:33;12.40;99.90
9640;DHT22;51745;50.872;4.732;2023-04-24T14:51:24;12.30;99.90
9640;DHT22;51745;50.872;4.732;2023-04-24T14:54:14;12.50;99.90
9640;DHT22;51745;50.872;4.732;2023-04-24T14:57:02;12.20;99.90
9640;DHT22;51745;50.872;4.732;2023-04-24T14:59:55;12.20;99.90
9640;DHT22;51745;50.872;4.732;2023-04-24T15:02:43;12.30;99.90
9640;DHT22;51745;50.872;4.732;2023-04-24T15:05:31;10.90;99.90
9640;DHT22;51745;50.872;4.732;2023-04-24T15:08:19;11.90;99.90
9640;DHT22;51745;50.872;4.732;2023-04-24T15:11:07;11.90;99.90
9640;DHT22;51745;50.872;4.732;2023-04-24T15:13:56;11.90;99.90
9640;DHT22;51745;50.872;4.732;2023-04-24T15:16:49;11.90;99.90
9640;DHT22;51745;50.872;4.732;2023-04-24T15:19:38;11.80;99.90
9640;DHT22;51745;50.872;4.732;2023-04-24T15:22:26;11.60;99.90
9640;DHT22;51745;50.872;4.732;2023-04-24T15:25:14;11.60;99.90
9640;DHT22;51745;50.872;4.732;2023-04-24T15:28:01;11.60;99.90
9640;DHT22;51745;50.872;4.732;2023-04-24T15:30:49;11.70;99.90
9640;DHT22;51745;50.872;4.732;2023-04-24T15:33:39;12.00;99.90
9640;DHT22;51745;50.872;4.732;2023-04-24T15:36:28;10.10;99.90
9640;DHT22;51745;50.872;4.732;2023-04-24T15:39:16;12.00;99.90
9640;DHT22;51745;50.872;4.732;2023-04-24T15:42:04;11.80;99.90
9640;DHT22;51745;50.872;4.732;2023-04-24T15:44:52;11.80;99.90
9640;DHT22;51745;50.872;4.732;2023-04-24T15:47:41;11.80;99.90
9640;DHT22;51745;50.872;4.732;2023-04-24T15:50:33;11.70;99.90
9640;DHT22;51745;50.872;4.732;2023-04-24T15:53:22;11.60;99.90
9640;DHT22;51745;50.872;4.732;2023-04-24T15:56:10;11.70;99.90
9640;DHT22;51745;50.872;4.732;2023-04-24T15:58:58;11.40;99.90
9640;DHT22;51745;50.872;4.732;2023-04-24T16:01:46;11.60;99.90
9640;DHT22;51745;50.872;4.732;2023-04-24T16:04:34;11.50;99.90
9640;DHT22;51745;50.872;4.732;2023-04-24T16:07:25;11.50;99.90
9640;DHT22;51745;50.872;4.732;2023-04-24T16:10:14;11.80;99.90
9640;DHT22;51745;50.872;4.732;2023-04-24T16:13:02;11.30;99.90
9640;DHT22;51745;50.872;4.732;2023-04-24T16:15:50;11.40;99.90
9640;DHT22;51745;50.872;4.732;2023-04-24T16:18:38;11.40;99.90
9640;DHT22;51745;50.872;4.732;2023-04-24T16:21:26;11.50;99.90
9640;DHT22;51745;50.872;4.732;2023-04-24T16:24:16;11.50;99.90
9640;DHT22;51745;50.872;4.732;2023-04-24T16:27:03;11.50;99.90
9640;DHT22;51745;50.872;4.732;2023-04-24T16:29:54;11.30;99.90
9640;DHT22;51745;50.872;4.732;2023-04-24T16:32:42;11.60;99.90
9640;DHT22;51745;50.872;4.732;2023-04-24T16:35:30;11.90;99.90
9640;DHT22;51745;50.872;4.732;2023-04-24T16:38:18;11.90;99.90
9640;DHT22;51745;50.872;4.732;2023-04-24T16:41:08;11.80;99.90
9640;DHT22;51745;50.872;4.732;2023-04-24T16:43:55;11.60;99.90
9640;DHT22;51745;50.872;4.732;2023-04-24T16:46:48;11.40;99.90
9640;DHT22;51745;50.872;4.732;2023-04-24T16:49:35;11.20;99.90
9640;DHT22;51745;50.872;4.732;2023-04-24T16:52:29;11.40;99.90
9640;DHT22;51745;50.872;4.732;2023-04-24T16:55:19;11.20;99.90
9640;DHT22;51745;50.872;4.732;2023-04-24T16:58:08;11.10;99.90
9640;DHT22;51745;50.872;4.732;2023-04-24T17:00:56;10.90;99.90
9640;DHT22;51745;50.872;4.732;2023-04-24T17:03:43;10.80;99.90
9640;DHT22;51745;50.872;4.732;2023-04-24T17:06:32;10.80;99.90
9640;DHT22;51745;50.872;4.732;2023-04-24T17:09:20;10.80;99.90
9640;DHT22;51745;50.872;4.732;2023-04-24T17:12:08;10.90;99.90
9640;DHT22;51745;50.872;4.732;2023-04-24T17:14:58;10.90;99.90
9640;DHT22;51745;50.872;4.732;2023-04-24T17:17:46;11.20;99.90
9640;DHT22;51745;50.872;4.732;2023-04-24T17:20:35;11.40;99.90
9640;DHT22;51745;50.872;4.732;2023-04-24T17:23:24;11.60;99.90
9640;DHT22;51745;50.872;4.732;2023-04-24T17:26:12;11.50;99.90
9640;DHT22;51745;50.872;4.732;2023-04-24T17:29:00;11.60;99.90
9640;DHT22;51745;50.872;4.732;2023-04-24T17:31:50;11.30;99.90
9640;DHT22;51745;50.872;4.732;2023-04-24T17:34:38;11.70;99.90
9640;DHT22;51745;50.872;4.732;2023-04-24T17:37:26;11.30;99.90
9640;DHT22;51745;50.872;4.732;2023-04-24T17:40:15;11.30;99.90
9640;DHT22;51745;50.872;4.732;2023-04-24T17:43:04;11.10;99.90
9640;DHT22;51745;50.872;4.732;2023-04-24T17:45:58;11.30;99.90
9640;DHT22;51745;50.872;4.732;2023-04-24T17:48:51;11.20;99.90
9640;DHT22;51745;50.872;4.732;2023-04-24T17:51:39;11.10;99.90
9640;DHT22;51745;50.872;4.732;2023-04-24T17:54:27;10.80;99.90
9640;DHT22;51745;50.872;4.732;2023-04-24T17:57:18;10.50;99.90
9640;DHT22;51745;50.872;4.732;2023-04-24T18:00:09;10.40;99.90
9640;DHT22;51745;50.872;4.732;2023-04-24T18:02:57;10.40;99.90
9640;DHT22;51745;50.872;4.732;2023-04-24T18:05:48;10.50;99.90
9640;DHT22;51745;50.872;4.732;2023-04-24T18:08:37;10.30;99.90
9640;DHT22;51745;50.872;4.732;2023-04-24T18:11:25;10.20;99.90
9640;DHT22;51745;50.872;4.732;2023-04-24T18:14:22;10.10;99.90
9640;DHT22;51745;50.872;4.732;2023-04-24T18:17:10;12.30;99.90
9640;DHT22;51745;50.872;4.732;2023-04-24T18:19:59;10.10;99.90
9640;DHT22;51745;50.872;4.732;2023-04-24T18:22:48;9.80;99.90
9640;DHT22;51745;50.872;4.732;2023-04-24T18:25:39;9.80;99.90
9640;DHT22;51745;50.872;4.732;2023-04-24T18:28:26;9.90;99.90